Santa Fe, NM

3:53 AM MDT on June 23, 2018 (GMT -0600)
Santa Fe Municipal | | Change Station
Active Advisory: Fire Weather Watch

Elev 6348 ft 35.62 °N, 106.09 °W | Updated 1 hour ago

Clear
Clear
63 °F
Feels Like 63 °F
N
9
Wind Variable Wind from North

Today
High -- | Low -- °F
--% Chance of Precip.
Yesterday
High -- | Low -- °F
Precip. -- in
Pressure 29.62 in
Visibility 10.0 miles
Clouds Clear
Dew Point 11 °F
Humidity 13%
Rainfall 0.00 in
Snow Depth Not available.
5:49 AM 8:23 PM
Waxing Gibbous, 79% visible
METAR KSAF 230853Z AUTO 35008KT 10SM CLR 17/M12 A2999 RMK AO2 SLP030 T01721117 53004
Pressure 29.62 in
Visibility 10.0 miles
Clouds Clear
Dew Point 11 °F
Humidity 13%
Rainfall 0.00 in
Snow Depth Not available.
5:49 AM 8:23 PM
Waxing Gibbous, 79% visible
METAR KSAF 230853Z AUTO 35008KT 10SM CLR 17/M12 A2999 RMK AO2 SLP030 T01721117 53004

Get Your Daily Forecast Email!

Thanks for signing up!

Be on the lookout for a verification email in your inbox.

You'll start receiving severe weather alerts in your inbox..

×

10-Day Weather Forecast

Almanac

Astronomy

Jun. 23, 2018 Rise Set
Actual Time
Civil Twilight
Nautical Twilight
Astronomical Twilight
Moon
Length of Visible Light
Length of Day
Tomorrow will be .
, % of the Moon is Illuminated

Today's Extremes

State Highs State Lows

Community

WunderPhotos

Category 6

Welcome to Category 6. This is the collective home for Weather Underground's featured writeups by Dr. Jeff Masters (right), Bob Henson (left), Chris Burt, and other regular contributors.

Nearby

Air Quality

  Air Quality AQ Index Pollutant
Not available.

Snow Depth

Station Depth Elevation

Earthquake Activity

City Distance Mag. Time & Date
Minimum magnitude displayed is 2.5.

Coastal Water Temperatures

Place Temperature

Stations

Nearby Weather Stations

Station Location Temp. Windchill Dew Point Humidity Wind Precip. Elev Updated Type
                   

Watches & Warnings

Fire Weather Watch
Issued: 1:44 AM MDT Jun. 23, 2018 – National Weather Service

... Fire Weather Watch in effect from Sunday afternoon through
Sunday evening...

The National Weather Service in Albuquerque has issued a Fire
Weather Watch... which is in effect from Sunday afternoon through
Sunday evening.

* Area and timing... this includes the northwest plateau and the
northern mountains Sunday afternoon and early evening.

* 20 foot winds... west at 15 to 25 mph with gusts to 35 mph.

* Relative humidity... minimum humidity values between 8 and 15
percent.

* Impacts... any fires that develop will likely spread rapidly.
Outdoor burning is not recommended.

Precautionary/preparedness actions...

Please advise the appropriate officials or fire crews in the
field of this Fire Weather Watch.



34